sensor_id;sensor_type;location;lat;lon;timestamp;P1;durP1;ratioP1;P2;durP2;ratioP2
34212;SDS011;20477;51.390;8.102;2023-02-28T04:21:09;5.15;;;3.22;;
34212;SDS011;20477;51.390;8.102;2023-02-28T04:23:38;4.72;;;3.15;;
34212;SDS011;20477;51.390;8.102;2023-02-28T04:26:06;5.30;;;3.20;;
34212;SDS011;20477;51.390;8.102;2023-02-28T04:28:36;8.57;;;3.38;;
34212;SDS011;20477;51.390;8.102;2023-02-28T04:31:05;4.47;;;2.90;;
34212;SDS011;20477;51.390;8.102;2023-02-28T04:33:33;4.43;;;3.17;;
34212;SDS011;20477;51.390;8.102;2023-02-28T04:36:03;5.60;;;3.20;;
34212;SDS011;20477;51.390;8.102;2023-02-28T04:38:36;3.65;;;3.17;;
34212;SDS011;20477;51.390;8.102;2023-02-28T04:41:05;7.47;;;3.60;;
34212;SDS011;20477;51.390;8.102;2023-02-28T04:43:33;6.95;;;3.78;;
34212;SDS011;20477;51.390;8.102;2023-02-28T04:46:02;8.07;;;3.00;;
34212;SDS011;20477;51.390;8.102;2023-02-28T04:48:32;7.43;;;4.80;;
34212;SDS011;20477;51.390;8.102;2023-02-28T04:51:03;6.25;;;4.63;;
34212;SDS011;20477;51.390;8.102;2023-02-28T04:53:33;6.97;;;3.35;;
34212;SDS011;20477;51.390;8.102;2023-02-28T04:56:01;6.97;;;3.80;;
34212;SDS011;20477;51.390;8.102;2023-02-28T04:58:29;9.07;;;4.32;;
34212;SDS011;20477;51.390;8.102;2023-02-28T05:01:01;8.00;;;3.60;;
34212;SDS011;20477;51.390;8.102;2023-02-28T05:03:29;5.05;;;3.22;;
34212;SDS011;20477;51.390;8.102;2023-02-28T05:05:57;6.18;;;3.10;;
34212;SDS011;20477;51.390;8.102;2023-02-28T05:08:27;9.90;;;3.58;;
34212;SDS011;20477;51.390;8.102;2023-02-28T05:10:56;5.07;;;3.53;;
34212;SDS011;20477;51.390;8.102;2023-02-28T05:13:25;4.68;;;3.40;;
34212;SDS011;20477;51.390;8.102;2023-02-28T05:15:53;5.75;;;3.20;;
34212;SDS011;20477;51.390;8.102;2023-02-28T05:18:21;7.28;;;2.97;;
34212;SDS011;20477;51.390;8.102;2023-02-28T05:20:49;3.78;;;2.88;;
34212;SDS011;20477;51.390;8.102;2023-02-28T05:23:17;6.90;;;3.63;;
34212;SDS011;20477;51.390;8.102;2023-02-28T05:25:49;5.35;;;3.78;;
34212;SDS011;20477;51.390;8.102;2023-02-28T05:28:18;5.15;;;3.97;;
34212;SDS011;20477;51.390;8.102;2023-02-28T05:30:46;6.93;;;4.05;;
34212;SDS011;20477;51.390;8.102;2023-02-28T05:33:14;9.93;;;3.63;;
34212;SDS011;20477;51.390;8.102;2023-02-28T05:35:42;4.95;;;3.63;;
34212;SDS011;20477;51.390;8.102;2023-02-28T05:38:10;8.23;;;3.65;;
34212;SDS011;20477;51.390;8.102;2023-02-28T05:40:38;7.90;;;3.55;;
34212;SDS011;20477;51.390;8.102;2023-02-28T05:43:10;4.88;;;3.50;;
34212;SDS011;20477;51.390;8.102;2023-02-28T05:45:39;4.72;;;3.72;;
34212;SDS011;20477;51.390;8.102;2023-02-28T05:48:07;10.35;;;4.32;;
34212;SDS011;20477;51.390;8.102;2023-02-28T05:50:35;7.85;;;4.45;;
34212;SDS011;20477;51.390;8.102;2023-02-28T05:53:03;5.15;;;3.75;;
34212;SDS011;20477;51.390;8.102;2023-02-28T05:55:31;13.57;;;4.80;;
34212;SDS011;20477;51.390;8.102;2023-02-28T05:58:02;5.63;;;4.10;;
34212;SDS011;20477;51.390;8.102;2023-02-28T06:00:31;6.28;;;4.18;;
34212;SDS011;20477;51.390;8.102;2023-02-28T06:02:59;7.82;;;4.35;;
34212;SDS011;20477;51.390;8.102;2023-02-28T06:05:28;9.45;;;4.50;;
34212;SDS011;20477;51.390;8.102;2023-02-28T06:07:56;10.43;;;4.50;;
34212;SDS011;20477;51.390;8.102;2023-02-28T06:10:24;6.82;;;4.63;;
34212;SDS011;20477;51.390;8.102;2023-02-28T06:12:52;6.32;;;4.60;;
34212;SDS011;20477;51.390;8.102;2023-02-28T06:15:20;9.07;;;4.97;;
34212;SDS011;20477;51.390;8.102;2023-02-28T06:17:50;9.05;;;5.63;;
34212;SDS011;20477;51.390;8.102;2023-02-28T06:20:18;10.35;;;5.70;;
34212;SDS011;20477;51.390;8.102;2023-02-28T06:22:46;13.55;;;5.00;;
34212;SDS011;20477;51.390;8.102;2023-02-28T06:25:16;6.13;;;4.20;;
34212;SDS011;20477;51.390;8.102;2023-02-28T06:27:45;9.48;;;4.68;;
34212;SDS011;20477;51.390;8.102;2023-02-28T06:30:14;7.15;;;4.72;;
34212;SDS011;20477;51.390;8.102;2023-02-28T06:32:42;12.38;;;4.85;;
34212;SDS011;20477;51.390;8.102;2023-02-28T06:35:12;18.73;;;5.50;;
34212;SDS011;20477;51.390;8.102;2023-02-28T06:37:40;11.73;;;5.05;;
34212;SDS011;20477;51.390;8.102;2023-02-28T06:40:08;7.07;;;5.10;;
34212;SDS011;20477;51.390;8.102;2023-02-28T06:42:39;9.15;;;4.97;;
34212;SDS011;20477;51.390;8.102;2023-02-28T06:45:07;11.43;;;4.75;;
34212;SDS011;20477;51.390;8.102;2023-02-28T06:47:37;11.82;;;4.50;;
34212;SDS011;20477;51.390;8.102;2023-02-28T06:50:06;7.82;;;4.07;;
34212;SDS011;20477;51.390;8.102;2023-02-28T06:52:37;11.43;;;4.40;;
34212;SDS011;20477;51.390;8.102;2023-02-28T06:55:07;21.45;;;4.60;;
34212;SDS011;20477;51.390;8.102;2023-02-28T06:57:36;14.55;;;4.20;;
34212;SDS011;20477;51.390;8.102;2023-02-28T07:00:05;28.70;;;5.10;;
34212;SDS011;20477;51.390;8.102;2023-02-28T07:02:35;6.75;;;4.53;;
34212;SDS011;20477;51.390;8.102;2023-02-28T07:05:03;15.18;;;7.15;;
34212;SDS011;20477;51.390;8.102;2023-02-28T07:07:32;13.73;;;5.18;;
34212;SDS011;20477;51.390;8.102;2023-02-28T07:10:04;11.35;;;3.53;;
34212;SDS011;20477;51.390;8.102;2023-02-28T07:12:32;10.40;;;4.45;;
34212;SDS011;20477;51.390;8.102;2023-02-28T07:15:01;13.73;;;4.78;;
34212;SDS011;20477;51.390;8.102;2023-02-28T07:17:29;9.88;;;5.15;;
34212;SDS011;20477;51.390;8.102;2023-02-28T07:19:58;14.70;;;4.70;;
34212;SDS011;20477;51.390;8.102;2023-02-28T07:22:26;7.50;;;4.72;;
34212;SDS011;20477;51.390;8.102;2023-02-28T07:24:54;7.55;;;4.82;;
34212;SDS011;20477;51.390;8.102;2023-02-28T07:27:24;13.13;;;4.13;;
34212;SDS011;20477;51.390;8.102;2023-02-28T07:29:52;5.70;;;4.07;;
34212;SDS011;20477;51.390;8.102;2023-02-28T07:32:21;11.20;;;4.05;;
34212;SDS011;20477;51.390;8.102;2023-02-28T07:34:49;12.77;;;3.78;;
34212;SDS011;20477;51.390;8.102;2023-02-28T07:37:17;13.60;;;5.22;;
34212;SDS011;20477;51.390;8.102;2023-02-28T07:39:45;25.27;;;9.43;;
34212;SDS011;20477;51.390;8.102;2023-02-28T07:42:13;31.92;;;12.25;;
34212;SDS011;20477;51.390;8.102;2023-02-28T07:44:43;12.90;;;6.13;;
34212;SDS011;20477;51.390;8.102;2023-02-28T07:47:11;14.80;;;6.47;;
34212;SDS011;20477;51.390;8.102;2023-02-28T07:49:39;13.35;;;5.47;;
34212;SDS011;20477;51.390;8.102;2023-02-28T07:52:07;11.80;;;5.70;;
34212;SDS011;20477;51.390;8.102;2023-02-28T07:54:37;10.70;;;5.53;;
34212;SDS011;20477;51.390;8.102;2023-02-28T07:57:05;11.75;;;6.15;;
34212;SDS011;20477;51.390;8.102;2023-02-28T07:59:33;18.38;;;7.22;;
34212;SDS011;20477;51.390;8.102;2023-02-28T08:02:03;20.50;;;7.65;;
34212;SDS011;20477;51.390;8.102;2023-02-28T08:04:31;13.75;;;6.88;;
34212;SDS011;20477;51.390;8.102;2023-02-28T08:06:59;21.63;;;6.97;;
34212;SDS011;20477;51.390;8.102;2023-02-28T08:09:27;17.50;;;6.55;;
34212;SDS011;20477;51.390;8.102;2023-02-28T08:11:56;17.90;;;6.82;;
34212;SDS011;20477;51.390;8.102;2023-02-28T08:14:24;14.85;;;6.07;;
34212;SDS011;20477;51.390;8.102;2023-02-28T08:16:52;16.38;;;7.05;;
34212;SDS011;20477;51.390;8.102;2023-02-28T08:19:22;9.88;;;5.65;;
34212;SDS011;20477;51.390;8.102;2023-02-28T08:21:50;12.30;;;5.85;;
34212;SDS011;20477;51.390;8.102;2023-02-28T08:24:18;15.50;;;6.18;;
34212;SDS011;20477;51.390;8.102;2023-02-28T08:26:46;14.05;;;6.00;;
34212;SDS011;20477;51.390;8.102;2023-02-28T08:29:14;13.90;;;5.78;;
34212;SDS011;20477;51.390;8.102;2023-02-28T08:31:42;13.95;;;6.05;;
34212;SDS011;20477;51.390;8.102;2023-02-28T08:34:11;13.68;;;5.25;;
34212;SDS011;20477;51.390;8.102;2023-02-28T08:36:41;12.52;;;5.30;;
34212;SDS011;20477;51.390;8.102;2023-02-28T08:39:11;13.98;;;5.40;;
34212;SDS011;20477;51.390;8.102;2023-02-28T08:41:39;7.10;;;5.13;;
34212;SDS011;20477;51.390;8.102;2023-02-28T08:44:09;9.85;;;4.45;;
34212;SDS011;20477;51.390;8.102;2023-02-28T08:46:37;13.32;;;3.78;;
34212;SDS011;20477;51.390;8.102;2023-02-28T08:49:05;10.13;;;3.80;;
34212;SDS011;20477;51.390;8.102;2023-02-28T08:51:33;10.90;;;3.63;;
34212;SDS011;20477;51.390;8.102;2023-02-28T08:54:03;5.25;;;3.83;;
34212;SDS011;20477;51.390;8.102;2023-02-28T08:56:31;12.60;;;3.95;;
34212;SDS011;20477;51.390;8.102;2023-02-28T08:59:00;9.70;;;3.55;;
34212;SDS011;20477;51.390;8.102;2023-02-28T09:01:28;6.72;;;3.30;;
34212;SDS011;20477;51.390;8.102;2023-02-28T09:03:58;6.47;;;3.47;;
34212;SDS011;20477;51.390;8.102;2023-02-28T09:06:26;6.82;;;3.30;;
34212;SDS011;20477;51.390;8.102;2023-02-28T09:08:56;6.35;;;3.60;;
34212;SDS011;20477;51.390;8.102;2023-02-28T09:11:27;6.45;;;3.40;;
34212;SDS011;20477;51.390;8.102;2023-02-28T09:13:55;5.47;;;2.67;;
34212;SDS011;20477;51.390;8.102;2023-02-28T09:16:23;8.27;;;3.47;;
34212;SDS011;20477;51.390;8.102;2023-02-28T09:18:51;6.90;;;3.22;;
34212;SDS011;20477;51.390;8.102;2023-02-28T09:21:20;5.03;;;2.60;;
34212;SDS011;20477;51.390;8.102;2023-02-28T09:23:48;5.43;;;2.83;;
34212;SDS011;20477;51.390;8.102;2023-02-28T09:26:18;7.30;;;2.50;;
34212;SDS011;20477;51.390;8.102;2023-02-28T09:28:49;7.63;;;2.55;;
34212;SDS011;20477;51.390;8.102;2023-02-28T09:31:19;5.30;;;2.30;;
34212;SDS011;20477;51.390;8.102;2023-02-28T09:33:48;2.28;;;1.40;;
34212;SDS011;20477;51.390;8.102;2023-02-28T09:36:17;3.53;;;2.30;;
34212;SDS011;20477;51.390;8.102;2023-02-28T09:38:47;2.83;;;1.65;;
34212;SDS011;20477;51.390;8.102;2023-02-28T09:41:17;3.00;;;1.70;;
34212;SDS011;20477;51.390;8.102;2023-02-28T09:43:56;6.47;;;2.30;;
34212;SDS011;20477;51.390;8.102;2023-02-28T09:46:29;6.72;;;2.25;;
34212;SDS011;20477;51.390;8.102;2023-02-28T09:49:01;5.22;;;2.22;;
34212;SDS011;20477;51.390;8.102;2023-02-28T09:51:37;3.80;;;2.50;;
34212;SDS011;20477;51.390;8.102;2023-02-28T09:54:13;4.25;;;1.65;;
34212;SDS011;20477;51.390;8.102;2023-02-28T09:56:45;4.35;;;2.20;;
34212;SDS011;20477;51.390;8.102;2023-02-28T09:59:23;3.97;;;2.22;;
34212;SDS011;20477;51.390;8.102;2023-02-28T10:01:59;5.95;;;2.85;;
34212;SDS011;20477;51.390;8.102;2023-02-28T10:04:36;6.43;;;2.75;;
34212;SDS011;20477;51.390;8.102;2023-02-28T10:07:13;4.43;;;1.90;;
34212;SDS011;20477;51.390;8.102;2023-02-28T10:09:46;5.72;;;2.50;;
34212;SDS011;20477;51.390;8.102;2023-02-28T10:12:18;6.43;;;2.60;;
34212;SDS011;20477;51.390;8.102;2023-02-28T10:14:49;2.42;;;2.03;;
34212;SDS011;20477;51.390;8.102;2023-02-28T10:17:19;3.50;;;2.03;;
34212;SDS011;20477;51.390;8.102;2023-02-28T10:19:52;6.05;;;2.28;;
34212;SDS011;20477;51.390;8.102;2023-02-28T10:22:24;5.50;;;2.00;;
34212;SDS011;20477;51.390;8.102;2023-02-28T10:24:55;3.88;;;2.00;;
34212;SDS011;20477;51.390;8.102;2023-02-28T10:27:32;5.28;;;2.00;;
34212;SDS011;20477;51.390;8.102;2023-02-28T10:30:02;7.75;;;2.63;;
34212;SDS011;20477;51.390;8.102;2023-02-28T10:32:32;5.55;;;2.03;;
34212;SDS011;20477;51.390;8.102;2023-02-28T10:35:06;3.00;;;1.80;;
34212;SDS011;20477;51.390;8.102;2023-02-28T10:37:42;6.00;;;2.65;;
34212;SDS011;20477;51.390;8.102;2023-02-28T10:40:24;4.53;;;1.95;;
34212;SDS011;20477;51.390;8.102;2023-02-28T10:42:55;4.57;;;2.42;;
34212;SDS011;20477;51.390;8.102;2023-02-28T10:45:26;5.43;;;2.67;;
34212;SDS011;20477;51.390;8.102;2023-02-28T10:47:57;2.13;;;1.63;;
34212;SDS011;20477;51.390;8.102;2023-02-28T10:50:27;4.68;;;2.65;;
34212;SDS011;20477;51.390;8.102;2023-02-28T10:53:07;6.80;;;2.70;;
34212;SDS011;20477;51.390;8.102;2023-02-28T10:55:43;5.63;;;2.22;;
34212;SDS011;20477;51.390;8.102;2023-02-28T10:58:20;8.18;;;2.58;;
34212;SDS011;20477;51.390;8.102;2023-02-28T11:00:51;6.47;;;3.30;;
34212;SDS011;20477;51.390;8.102;2023-02-28T11:03:23;11.98;;;2.60;;
34212;SDS011;20477;51.390;8.102;2023-02-28T11:08:20;2.92;;;2.35;;
34212;SDS011;20477;51.390;8.102;2023-02-28T11:10:54;6.10;;;2.45;;
34212;SDS011;20477;51.390;8.102;2023-02-28T11:13:25;3.55;;;2.58;;
34212;SDS011;20477;51.390;8.102;2023-02-28T11:15:57;4.78;;;2.70;;
34212;SDS011;20477;51.390;8.102;2023-02-28T11:18:27;5.78;;;2.47;;
34212;SDS011;20477;51.390;8.102;2023-02-28T11:20:57;6.45;;;2.53;;
34212;SDS011;20477;51.390;8.102;2023-02-28T11:23:28;8.50;;;2.47;;
34212;SDS011;20477;51.390;8.102;2023-02-28T11:25:58;4.38;;;2.20;;
34212;SDS011;20477;51.390;8.102;2023-02-28T11:28:29;7.35;;;2.67;;
34212;SDS011;20477;51.390;8.102;2023-02-28T11:33:46;4.85;;;2.80;;
34212;SDS011;20477;51.390;8.102;2023-02-28T11:36:18;4.30;;;2.50;;
34212;SDS011;20477;51.390;8.102;2023-02-28T11:38:47;4.10;;;2.53;;
34212;SDS011;20477;51.390;8.102;2023-02-28T11:41:22;3.15;;;2.22;;
34212;SDS011;20477;51.390;8.102;2023-02-28T11:44:06;3.45;;;2.30;;
34212;SDS011;20477;51.390;8.102;2023-02-28T11:46:49;4.13;;;2.33;;
34212;SDS011;20477;51.390;8.102;2023-02-28T11:49:27;4.07;;;2.30;;
34212;SDS011;20477;51.390;8.102;2023-02-28T11:52:01;6.90;;;2.92;;
34212;SDS011;20477;51.390;8.102;2023-02-28T11:54:41;4.03;;;2.40;;
34212;SDS011;20477;51.390;8.102;2023-02-28T11:57:43;2.20;;;2.00;;
34212;SDS011;20477;51.390;8.102;2023-02-28T12:00:35;3.50;;;1.70;;
34212;SDS011;20477;51.390;8.102;2023-02-28T12:03:18;4.82;;;2.90;;
34212;SDS011;20477;51.390;8.102;2023-02-28T12:05:57;5.10;;;2.38;;
34212;SDS011;20477;51.390;8.102;2023-02-28T12:08:36;4.97;;;2.20;;
34212;SDS011;20477;51.390;8.102;2023-02-28T12:11:28;5.40;;;2.60;;
34212;SDS011;20477;51.390;8.102;2023-02-28T12:14:15;3.10;;;2.20;;
34212;SDS011;20477;51.390;8.102;2023-02-28T12:16:53;4.50;;;2.22;;
34212;SDS011;20477;51.390;8.102;2023-02-28T12:19:29;4.20;;;2.75;;
34212;SDS011;20477;51.390;8.102;2023-02-28T12:22:05;4.22;;;2.60;;
34212;SDS011;20477;51.390;8.102;2023-02-28T12:24:45;6.28;;;2.22;;
34212;SDS011;20477;51.390;8.102;2023-02-28T12:27:23;2.40;;;1.90;;
34212;SDS011;20477;51.390;8.102;2023-02-28T12:29:54;3.47;;;2.47;;
34212;SDS011;20477;51.390;8.102;2023-02-28T12:32:25;3.70;;;2.45;;
34212;SDS011;20477;51.390;8.102;2023-02-28T12:34:56;4.78;;;2.35;;
34212;SDS011;20477;51.390;8.102;2023-02-28T12:37:28;6.53;;;2.85;;
34212;SDS011;20477;51.390;8.102;2023-02-28T12:42:30;2.90;;;2.20;;
34212;SDS011;20477;51.390;8.102;2023-02-28T12:45:01;3.40;;;2.53;;
34212;SDS011;20477;51.390;8.102;2023-02-28T12:47:30;5.50;;;2.50;;
34212;SDS011;20477;51.390;8.102;2023-02-28T12:50:02;5.15;;;2.70;;
34212;SDS011;20477;51.390;8.102;2023-02-28T12:52:35;4.53;;;2.17;;
34212;SDS011;20477;51.390;8.102;2023-02-28T12:55:08;4.75;;;2.92;;
34212;SDS011;20477;51.390;8.102;2023-02-28T12:57:41;6.65;;;2.40;;
34212;SDS011;20477;51.390;8.102;2023-02-28T13:00:14;4.65;;;3.47;;
34212;SDS011;20477;51.390;8.102;2023-02-28T13:09:00;3.92;;;2.70;;
34212;SDS011;20477;51.390;8.102;2023-02-28T13:11:33;7.22;;;3.33;;
34212;SDS011;20477;51.390;8.102;2023-02-28T13:14:15;4.18;;;2.38;;
34212;SDS011;20477;51.390;8.102;2023-02-28T13:16:57;4.65;;;2.58;;
34212;SDS011;20477;51.390;8.102;2023-02-28T13:19:27;6.38;;;2.85;;
34212;SDS011;20477;51.390;8.102;2023-02-28T13:21:57;6.10;;;2.70;;
34212;SDS011;20477;51.390;8.102;2023-02-28T13:24:38;4.07;;;2.42;;
34212;SDS011;20477;51.390;8.102;2023-02-28T13:33:24;5.70;;;2.63;;
34212;SDS011;20477;51.390;8.102;2023-02-28T13:36:01;15.50;;;2.40;;
34212;SDS011;20477;51.390;8.102;2023-02-28T13:38:39;4.30;;;2.60;;
34212;SDS011;20477;51.390;8.102;2023-02-28T13:44:23;7.10;;;2.53;;
34212;SDS011;20477;51.390;8.102;2023-02-28T13:49:47;4.65;;;2.83;;
34212;SDS011;20477;51.390;8.102;2023-02-28T13:52:17;6.18;;;2.70;;
34212;SDS011;20477;51.390;8.102;2023-02-28T13:54:51;4.38;;;2.78;;
34212;SDS011;20477;51.390;8.102;2023-02-28T13:57:27;3.10;;;2.38;;
34212;SDS011;20477;51.390;8.102;2023-02-28T14:00:05;4.47;;;2.63;;
34212;SDS011;20477;51.390;8.102;2023-02-28T14:02:48;6.18;;;2.90;;
34212;SDS011;20477;51.390;8.102;2023-02-28T14:05:27;5.68;;;3.08;;
34212;SDS011;20477;51.390;8.102;2023-02-28T14:07:56;5.63;;;2.70;;
34212;SDS011;20477;51.390;8.102;2023-02-28T14:10:27;4.35;;;2.83;;
34212;SDS011;20477;51.390;8.102;2023-02-28T14:13:00;4.55;;;2.85;;
34212;SDS011;20477;51.390;8.102;2023-02-28T14:18:30;6.95;;;2.80;;
34212;SDS011;20477;51.390;8.102;2023-02-28T14:21:14;5.18;;;3.20;;
34212;SDS011;20477;51.390;8.102;2023-02-28T14:26:56;5.00;;;3.15;;
34212;SDS011;20477;51.390;8.102;2023-02-28T14:32:49;4.18;;;2.55;;
34212;SDS011;20477;51.390;8.102;2023-02-28T14:35:35;4.38;;;2.83;;
34212;SDS011;20477;51.390;8.102;2023-02-28T14:38:13;5.97;;;2.97;;
34212;SDS011;20477;51.390;8.102;2023-02-28T14:40:44;4.72;;;3.22;;
34212;SDS011;20477;51.390;8.102;2023-02-28T14:43:19;5.57;;;2.95;;
34212;SDS011;20477;51.390;8.102;2023-02-28T14:48:18;3.83;;;2.58;;
34212;SDS011;20477;51.390;8.102;2023-02-28T14:50:48;7.13;;;3.63;;
34212;SDS011;20477;51.390;8.102;2023-02-28T14:53:18;6.20;;;3.40;;
34212;SDS011;20477;51.390;8.102;2023-02-28T14:55:48;5.75;;;3.63;;
34212;SDS011;20477;51.390;8.102;2023-02-28T14:58:22;5.65;;;3.47;;
34212;SDS011;20477;51.390;8.102;2023-02-28T15:00:55;6.28;;;3.80;;
34212;SDS011;20477;51.390;8.102;2023-02-28T15:03:31;6.55;;;3.60;;
34212;SDS011;20477;51.390;8.102;2023-02-28T15:06:01;5.15;;;3.40;;
34212;SDS011;20477;51.390;8.102;2023-02-28T15:08:30;5.68;;;3.67;;
34212;SDS011;20477;51.390;8.102;2023-02-28T15:11:03;5.10;;;3.63;;
34212;SDS011;20477;51.390;8.102;2023-02-28T15:13:34;6.18;;;3.63;;
34212;SDS011;20477;51.390;8.102;2023-02-28T15:16:04;5.13;;;3.67;;
34212;SDS011;20477;51.390;8.102;2023-02-28T15:18:40;6.50;;;4.22;;
34212;SDS011;20477;51.390;8.102;2023-02-28T15:21:12;9.90;;;6.80;;
34212;SDS011;20477;51.390;8.102;2023-02-28T15:23:45;6.30;;;4.20;;
34212;SDS011;20477;51.390;8.102;2023-02-28T15:26:14;4.78;;;2.97;;
34212;SDS011;20477;51.390;8.102;2023-02-28T15:28:43;4.72;;;3.40;;
34212;SDS011;20477;51.390;8.102;2023-02-28T15:31:22;6.25;;;3.38;;
34212;SDS011;20477;51.390;8.102;2023-02-28T15:34:04;3.85;;;3.25;;
34212;SDS011;20477;51.390;8.102;2023-02-28T15:36:33;6.23;;;3.60;;
34212;SDS011;20477;51.390;8.102;2023-02-28T15:39:16;6.35;;;3.33;;
34212;SDS011;20477;51.390;8.102;2023-02-28T15:44:15;9.57;;;4.65;;
34212;SDS011;20477;51.390;8.102;2023-02-28T15:46:53;7.78;;;5.05;;
34212;SDS011;20477;51.390;8.102;2023-02-28T15:49:24;7.68;;;4.05;;
34212;SDS011;20477;51.390;8.102;2023-02-28T15:51:53;5.78;;;4.07;;
34212;SDS011;20477;51.390;8.102;2023-02-28T15:54:23;8.43;;;4.20;;
34212;SDS011;20477;51.390;8.102;2023-02-28T15:56:54;9.73;;;3.95;;
34212;SDS011;20477;51.390;8.102;2023-02-28T15:59:24;4.85;;;3.42;;
34212;SDS011;20477;51.390;8.102;2023-02-28T16:02:11;6.38;;;3.95;;
34212;SDS011;20477;51.390;8.102;2023-02-28T16:04:58;5.85;;;3.88;;
34212;SDS011;20477;51.390;8.102;2023-02-28T16:07:44;7.05;;;4.07;;
34212;SDS011;20477;51.390;8.102;2023-02-28T16:10:13;9.27;;;4.40;;
34212;SDS011;20477;51.390;8.102;2023-02-28T16:12:41;5.43;;;3.78;;
34212;SDS011;20477;51.390;8.102;2023-02-28T16:15:18;6.43;;;3.78;;
34212;SDS011;20477;51.390;8.102;2023-02-28T16:17:47;6.03;;;3.33;;
34212;SDS011;20477;51.390;8.102;2023-02-28T16:20:17;5.55;;;3.85;;
34212;SDS011;20477;51.390;8.102;2023-02-28T16:22:47;4.45;;;3.05;;
34212;SDS011;20477;51.390;8.102;2023-02-28T16:25:15;8.40;;;2.85;;
34212;SDS011;20477;51.390;8.102;2023-02-28T16:27:46;7.28;;;4.07;;
34212;SDS011;20477;51.390;8.102;2023-02-28T16:30:18;10.18;;;4.65;;
34212;SDS011;20477;51.390;8.102;2023-02-28T16:32:48;6.70;;;4.10;;
34212;SDS011;20477;51.390;8.102;2023-02-28T16:35:18;6.85;;;4.85;;
34212;SDS011;20477;51.390;8.102;2023-02-28T16:37:47;10.68;;;4.05;;
34212;SDS011;20477;51.390;8.102;2023-02-28T16:40:16;4.65;;;3.42;;
34212;SDS011;20477;51.390;8.102;2023-02-28T16:42:47;10.32;;;4.25;;
34212;SDS011;20477;51.390;8.102;2023-02-28T16:45:16;6.80;;;3.88;;
34212;SDS011;20477;51.390;8.102;2023-02-28T16:47:46;7.55;;;3.78;;
34212;SDS011;20477;51.390;8.102;2023-02-28T16:50:15;7.07;;;4.28;;
34212;SDS011;20477;51.390;8.102;2023-02-28T16:52:46;8.02;;;4.53;;
34212;SDS011;20477;51.390;8.102;2023-02-28T16:55:15;6.95;;;4.40;;
34212;SDS011;20477;51.390;8.102;2023-02-28T16:57:44;6.88;;;4.53;;
34212;SDS011;20477;51.390;8.102;2023-02-28T17:00:14;12.63;;;4.50;;
34212;SDS011;20477;51.390;8.102;2023-02-28T17:02:43;10.77;;;4.32;;
34212;SDS011;20477;51.390;8.102;2023-02-28T17:05:12;11.38;;;4.35;;
34212;SDS011;20477;51.390;8.102;2023-02-28T17:07:42;7.75;;;4.13;;
34212;SDS011;20477;51.390;8.102;2023-02-28T17:10:12;9.38;;;4.38;;
34212;SDS011;20477;51.390;8.102;2023-02-28T17:12:41;5.97;;;4.07;;
34212;SDS011;20477;51.390;8.102;2023-02-28T17:15:10;6.85;;;4.45;;
34212;SDS011;20477;51.390;8.102;2023-02-28T17:17:39;7.18;;;4.50;;
34212;SDS011;20477;51.390;8.102;2023-02-28T17:20:10;11.93;;;5.07;;
34212;SDS011;20477;51.390;8.102;2023-02-28T17:22:39;7.50;;;4.68;;
34212;SDS011;20477;51.390;8.102;2023-02-28T17:25:09;8.82;;;5.07;;
34212;SDS011;20477;51.390;8.102;2023-02-28T17:27:38;9.48;;;5.25;;
34212;SDS011;20477;51.390;8.102;2023-02-28T17:30:09;9.43;;;4.68;;
34212;SDS011;20477;51.390;8.102;2023-02-28T17:32:42;12.63;;;5.35;;
34212;SDS011;20477;51.390;8.102;2023-02-28T17:35:11;16.13;;;7.15;;
34212;SDS011;20477;51.390;8.102;2023-02-28T17:37:39;22.10;;;7.00;;
34212;SDS011;20477;51.390;8.102;2023-02-28T17:40:11;13.45;;;8.07;;
34212;SDS011;20477;51.390;8.102;2023-02-28T17:42:41;17.90;;;7.60;;
34212;SDS011;20477;51.390;8.102;2023-02-28T17:45:09;14.15;;;8.32;;
34212;SDS011;20477;51.390;8.102;2023-02-28T17:47:38;19.67;;;10.10;;
34212;SDS011;20477;51.390;8.102;2023-02-28T17:50:09;27.77;;;13.63;;
34212;SDS011;20477;51.390;8.102;2023-02-28T17:52:39;28.67;;;14.63;;
34212;SDS011;20477;51.390;8.102;2023-02-28T17:55:08;28.58;;;15.75;;
34212;SDS011;20477;51.390;8.102;2023-02-28T17:57:38;28.92;;;17.27;;
34212;SDS011;20477;51.390;8.102;2023-02-28T18:00:10;26.00;;;12.90;;
34212;SDS011;20477;51.390;8.102;2023-02-28T18:02:40;20.48;;;11.43;;
34212;SDS011;20477;51.390;8.102;2023-02-28T18:05:08;18.40;;;10.75;;
34212;SDS011;20477;51.390;8.102;2023-02-28T18:07:37;27.33;;;13.65;;
34212;SDS011;20477;51.390;8.102;2023-02-28T18:10:06;34.83;;;16.10;;
34212;SDS011;20477;51.390;8.102;2023-02-28T18:12:35;33.28;;;16.38;;
34212;SDS011;20477;51.390;8.102;2023-02-28T18:15:05;18.70;;;11.50;;
34212;SDS011;20477;51.390;8.102;2023-02-28T18:17:34;19.83;;;10.73;;
34212;SDS011;20477;51.390;8.102;2023-02-28T18:20:04;28.63;;;9.75;;
34212;SDS011;20477;51.390;8.102;2023-02-28T18:22:33;17.45;;;10.10;;
34212;SDS011;20477;51.390;8.102;2023-02-28T18:25:03;18.90;;;10.82;;
34212;SDS011;20477;51.390;8.102;2023-02-28T18:27:32;28.17;;;12.50;;
34212;SDS011;20477;51.390;8.102;2023-02-28T18:30:00;29.15;;;12.40;;
34212;SDS011;20477;51.390;8.102;2023-02-28T18:32:29;16.33;;;9.30;;
34212;SDS011;20477;51.390;8.102;2023-02-28T18:34:58;21.63;;;9.65;;
34212;SDS011;20477;51.390;8.102;2023-02-28T18:37:26;17.42;;;9.68;;
34212;SDS011;20477;51.390;8.102;2023-02-28T18:39:54;20.50;;;10.65;;
34212;SDS011;20477;51.390;8.102;2023-02-28T18:42:22;23.25;;;11.43;;
34212;SDS011;20477;51.390;8.102;2023-02-28T18:44:50;21.23;;;10.98;;
34212;SDS011;20477;51.390;8.102;2023-02-28T18:47:18;18.10;;;10.38;;
34212;SDS011;20477;51.390;8.102;2023-02-28T18:49:47;22.98;;;12.05;;
34212;SDS011;20477;51.390;8.102;2023-02-28T18:52:15;22.92;;;13.07;;
34212;SDS011;20477;51.390;8.102;2023-02-28T18:54:44;22.83;;;13.90;;
34212;SDS011;20477;51.390;8.102;2023-02-28T18:57:12;24.13;;;13.70;;
34212;SDS011;20477;51.390;8.102;2023-02-28T18:59:40;18.65;;;12.55;;
34212;SDS011;20477;51.390;8.102;2023-02-28T19:02:08;24.23;;;13.25;;
34212;SDS011;20477;51.390;8.102;2023-02-28T19:04:39;21.83;;;13.23;;
34212;SDS011;20477;51.390;8.102;2023-02-28T19:07:09;27.52;;;13.57;;
34212;SDS011;20477;51.390;8.102;2023-02-28T19:09:37;29.25;;;14.48;;
34212;SDS011;20477;51.390;8.102;2023-02-28T19:12:05;28.85;;;16.38;;
34212;SDS011;20477;51.390;8.102;2023-02-28T19:14:33;30.98;;;13.60;;
34212;SDS011;20477;51.390;8.102;2023-02-28T19:17:01;25.45;;;14.50;;
34212;SDS011;20477;51.390;8.102;2023-02-28T19:19:29;26.48;;;14.00;;
34212;SDS011;20477;51.390;8.102;2023-02-28T19:21:57;30.60;;;14.43;;
34212;SDS011;20477;51.390;8.102;2023-02-28T19:24:26;24.05;;;13.60;;
34212;SDS011;20477;51.390;8.102;2023-02-28T19:26:55;27.67;;;14.73;;
34212;SDS011;20477;51.390;8.102;2023-02-28T19:29:23;35.03;;;17.67;;
34212;SDS011;20477;51.390;8.102;2023-02-28T19:31:51;34.35;;;17.45;;
34212;SDS011;20477;51.390;8.102;2023-02-28T19:34:19;34.20;;;16.30;;
34212;SDS011;20477;51.390;8.102;2023-02-28T19:36:47;34.47;;;17.55;;
34212;SDS011;20477;51.390;8.102;2023-02-28T19:39:16;31.13;;;16.25;;
34212;SDS011;20477;51.390;8.102;2023-02-28T19:41:45;37.58;;;17.77;;
34212;SDS011;20477;51.390;8.102;2023-02-28T19:44:13;38.30;;;18.63;;
34212;SDS011;20477;51.390;8.102;2023-02-28T19:46:41;41.15;;;19.60;;
34212;SDS011;20477;51.390;8.102;2023-02-28T19:49:09;38.85;;;18.88;;
34212;SDS011;20477;51.390;8.102;2023-02-28T19:51:38;39.28;;;19.60;;
34212;SDS011;20477;51.390;8.102;2023-02-28T19:54:06;47.70;;;19.05;;
34212;SDS011;20477;51.390;8.102;2023-02-28T19:56:34;23.83;;;13.32;;
34212;SDS011;20477;51.390;8.102;2023-02-28T19:59:04;32.78;;;14.55;;
34212;SDS011;20477;51.390;8.102;2023-02-28T20:01:46;34.20;;;16.05;;
34212;SDS011;20477;51.390;8.102;2023-02-28T20:04:15;33.90;;;15.45;;